createdAt,value
2022-09-02T00:00:20.026Z,29.934
2022-09-02T00:05:19.799Z,29.939
2022-09-02T00:10:19.790Z,29.942
2022-09-02T00:15:19.798Z,29.947
2022-09-02T00:20:19.799Z,29.949
2022-09-02T00:25:19.785Z,29.950
2022-09-02T00:30:19.797Z,29.952
2022-09-02T00:35:19.908Z,29.955
2022-09-02T00:40:16.899Z,29.958
2022-09-02T00:45:16.880Z,29.962
2022-09-02T00:50:19.826Z,29.965
2022-09-02T00:55:19.881Z,29.968
2022-09-02T01:00:19.862Z,29.972
2022-09-02T01:05:19.789Z,29.975
2022-09-02T01:10:20.024Z,29.975
2022-09-02T01:15:16.807Z,29.977
2022-09-02T01:20:16.851Z,29.981
2022-09-02T01:25:19.863Z,29.980
2022-09-02T01:30:19.943Z,29.984
2022-09-02T01:35:19.823Z,29.985
2022-09-02T01:40:19.861Z,29.990
2022-09-02T01:45:20.044Z,29.990
2022-09-02T01:50:19.848Z,29.991
2022-09-02T01:55:16.730Z,29.994
2022-09-02T02:00:19.841Z,29.996
2022-09-02T02:05:16.884Z,29.998
2022-09-02T02:10:19.871Z,29.997
2022-09-02T02:15:19.888Z,30.001
2022-09-02T02:20:20.045Z,30.001
2022-09-02T02:25:19.853Z,30.003
2022-09-02T02:30:19.869Z,30.002
2022-09-02T02:35:16.893Z,30.004
2022-09-02T02:40:19.897Z,30.005
2022-09-02T02:45:16.909Z,30.005
2022-09-02T02:50:16.895Z,30.008
2022-09-02T02:55:17.164Z,30.011
2022-09-02T03:00:19.935Z,30.014
2022-09-02T03:05:19.885Z,30.019
2022-09-02T03:10:19.938Z,30.020
2022-09-02T03:15:16.892Z,30.023
2022-09-02T03:20:19.884Z,30.023
2022-09-02T03:25:20.102Z,30.027
2022-09-02T03:30:19.906Z,30.029
2022-09-02T03:35:16.885Z,30.031
2022-09-02T03:40:17.039Z,30.035
2022-09-02T03:45:19.925Z,30.036
2022-09-02T03:50:19.969Z,30.040
2022-09-02T03:55:19.888Z,30.040
2022-09-02T04:00:19.368Z,30.043
2022-09-02T04:05:19.149Z,30.043
2022-09-02T04:10:19.153Z,30.045
2022-09-02T04:15:19.143Z,30.050
2022-09-02T04:20:19.204Z,30.053
2022-09-02T04:25:19.131Z,30.054
2022-09-02T04:30:19.141Z,30.056
2022-09-02T04:35:16.406Z,30.061
2022-09-02T04:40:16.240Z,30.061
2022-09-02T04:45:16.184Z,30.062
2022-09-02T04:50:16.182Z,30.064
2022-09-02T04:55:16.197Z,30.065
2022-09-02T05:00:16.209Z,30.067
2022-09-02T05:05:16.188Z,30.067
2022-09-02T05:10:16.297Z,30.073
2022-09-02T05:15:19.173Z,30.073
2022-09-02T05:20:19.194Z,30.071
2022-09-02T05:25:19.165Z,30.074
2022-09-02T05:30:19.227Z,30.074
2022-09-02T05:35:19.184Z,30.074
2022-09-02T05:40:22.602Z,30.071
2022-09-02T05:45:19.187Z,30.078
2022-09-02T05:50:19.157Z,30.077
2022-09-02T05:55:19.203Z,30.074
2022-09-02T06:00:17.851Z,30.076
2022-09-02T06:05:19.231Z,30.078
2022-09-02T06:10:19.202Z,30.078
2022-09-02T06:15:19.391Z,30.080
2022-09-02T06:20:19.182Z,30.083
2022-09-02T06:25:19.170Z,30.084
2022-09-02T06:30:19.213Z,30.083
2022-09-02T06:35:19.192Z,30.086
2022-09-02T06:40:16.135Z,30.089
2022-09-02T06:45:19.206Z,30.090
2022-09-02T06:50:19.416Z,30.093
2022-09-02T06:55:19.209Z,30.097
2022-09-02T07:00:19.224Z,30.097
2022-09-02T07:05:16.261Z,30.097
2022-09-02T07:10:16.294Z,30.096
2022-09-02T07:15:16.257Z,30.100
2022-09-02T07:20:16.265Z,30.102
2022-09-02T07:25:16.385Z,30.104
2022-09-02T07:30:16.247Z,30.103
2022-09-02T07:35:16.270Z,30.103
2022-09-02T07:40:16.306Z,30.104
2022-09-02T07:45:19.247Z,30.107
2022-09-02T07:50:19.658Z,30.110
2022-09-02T07:55:19.453Z,30.109
2022-09-02T08:00:19.252Z,30.115
2022-09-02T08:05:16.286Z,30.116
2022-09-02T08:10:16.270Z,30.120
2022-09-02T08:15:16.305Z,30.119
2022-09-02T08:20:16.270Z,30.123
2022-09-02T08:25:16.286Z,30.127
2022-09-02T08:30:16.556Z,30.130
2022-09-02T08:35:16.278Z,30.131
2022-09-02T08:40:19.336Z,30.135
2022-09-02T08:45:19.249Z,30.134
2022-09-02T08:50:16.270Z,30.141
2022-09-02T08:55:16.276Z,30.140
2022-09-02T09:00:16.308Z,30.142
2022-09-02T09:05:19.531Z,30.144
2022-09-02T09:10:19.288Z,30.144
2022-09-02T09:15:16.330Z,30.151
2022-09-02T09:20:19.290Z,30.154
2022-09-02T09:25:19.267Z,30.156
2022-09-02T09:30:19.321Z,30.159
2022-09-02T09:35:19.282Z,30.158
2022-09-02T09:40:19.527Z,30.164
2022-09-02T09:45:19.260Z,30.164
2022-09-02T09:50:19.329Z,30.165
2022-09-02T09:55:25.063Z,30.167
2022-09-02T10:00:19.319Z,30.169
2022-09-02T10:05:19.333Z,30.175
2022-09-02T10:10:19.300Z,30.175
2022-09-02T10:15:19.537Z,30.180
2022-09-02T10:20:19.299Z,30.181
2022-09-02T10:25:16.341Z,30.185
2022-09-02T10:30:16.439Z,30.186
2022-09-02T10:35:19.402Z,30.189
2022-09-02T10:40:16.541Z,30.191
2022-09-02T10:45:16.377Z,30.194
2022-09-02T10:50:16.604Z,30.197
2022-09-02T10:55:19.349Z,30.201
2022-09-02T11:00:19.295Z,30.203
2022-09-02T11:05:19.286Z,30.205
2022-09-02T11:10:19.313Z,30.210
2022-09-02T11:15:16.177Z,30.210
2022-09-02T11:20:19.534Z,30.210
2022-09-02T11:25:19.324Z,30.210
2022-09-02T11:30:19.331Z,30.213
2022-09-02T11:35:19.292Z,30.214
2022-09-02T11:40:33.802Z,30.217
2022-09-02T11:45:16.490Z,30.220
2022-09-02T11:50:16.365Z,30.219
2022-09-02T11:55:16.521Z,30.221
2022-09-02T12:00:19.357Z,30.220
2022-09-02T12:05:19.470Z,30.223
2022-09-02T12:10:19.315Z,30.222
2022-09-02T12:15:19.876Z,30.225
2022-09-02T12:20:19.350Z,30.228
2022-09-02T12:25:19.590Z,30.229
2022-09-02T12:30:19.372Z,30.231
2022-09-02T12:35:19.340Z,30.230
2022-09-02T12:40:16.471Z,30.232
2022-09-02T12:45:16.402Z,30.234
2022-09-02T12:50:16.402Z,30.232
2022-09-02T12:55:16.396Z,30.235
2022-09-02T13:00:16.607Z,30.235
2022-09-02T13:05:16.432Z,30.235
2022-09-02T13:10:16.392Z,30.235
2022-09-02T13:15:20.134Z,30.237
2022-09-02T13:20:19.370Z,30.236
2022-09-02T13:25:19.446Z,30.235
2022-09-02T13:30:19.644Z,30.238
2022-09-02T13:35:24.004Z,30.240
2022-09-02T13:40:19.371Z,30.241
2022-09-02T13:45:19.435Z,30.241
2022-09-02T13:50:19.451Z,30.244
2022-09-02T13:55:16.444Z,30.241
2022-09-02T14:00:19.509Z,30.244
2022-09-02T14:05:16.552Z,30.245
2022-09-02T14:10:16.408Z,30.243
2022-09-02T14:15:19.415Z,30.244
2022-09-02T14:20:19.368Z,30.246
2022-09-02T14:25:19.403Z,30.245
2022-09-02T14:30:16.365Z,30.245
2022-09-02T14:35:19.679Z,30.244
2022-09-02T14:40:19.419Z,30.246
2022-09-02T14:45:19.391Z,30.243
2022-09-02T14:50:19.403Z,30.242
2022-09-02T14:55:16.494Z,30.244
2022-09-02T15:00:16.451Z,30.244
2022-09-02T15:05:16.637Z,30.244
2022-09-02T15:10:16.525Z,30.246
2022-09-02T15:15:19.458Z,30.248
2022-09-02T15:20:19.462Z,30.245
2022-09-02T15:25:19.416Z,30.243
2022-09-02T15:30:19.429Z,30.242
2022-09-02T15:35:19.390Z,30.243
2022-09-02T15:40:19.527Z,30.244
2022-09-02T15:45:16.471Z,30.242
2022-09-02T15:50:16.486Z,30.243
2022-09-02T15:55:16.488Z,30.242
2022-09-02T16:00:16.480Z,30.242
2022-09-02T16:05:19.438Z,30.243
2022-09-02T16:10:19.423Z,30.244
2022-09-02T16:15:19.639Z,30.243
2022-09-02T16:20:21.367Z,30.244
2022-09-02T16:25:19.492Z,30.243
2022-09-02T16:30:16.477Z,30.243
2022-09-02T16:35:16.493Z,30.245
2022-09-02T16:40:16.495Z,30.244
2022-09-02T16:45:16.496Z,30.242
2022-09-02T16:50:16.701Z,30.242
2022-09-02T16:55:19.457Z,30.241
2022-09-02T17:00:19.473Z,30.241
2022-09-02T17:05:19.473Z,30.241
2022-09-02T17:10:19.483Z,30.241
2022-09-02T17:15:19.486Z,30.243
2022-09-02T17:20:19.701Z,30.242
2022-09-02T17:25:19.457Z,30.243
2022-09-02T17:30:19.437Z,30.243
2022-09-02T17:35:19.469Z,30.239
2022-09-02T17:40:19.529Z,30.241
2022-09-02T17:45:19.523Z,30.238
2022-09-02T17:50:18.059Z,30.239
2022-09-02T17:55:16.618Z,30.240
2022-09-02T18:00:16.590Z,30.239
2022-09-02T18:05:19.501Z,30.239
2022-09-02T18:10:19.524Z,30.236
2022-09-02T18:15:19.465Z,30.235
2022-09-02T18:20:19.476Z,30.234
2022-09-02T18:25:19.708Z,30.234
2022-09-02T18:30:19.472Z,30.235
2022-09-02T18:35:19.506Z,30.236
2022-09-02T18:40:16.522Z,30.233
2022-09-02T18:45:21.393Z,30.232
2022-09-02T18:50:32.054Z,30.232
2022-09-02T18:55:17.226Z,30.231
2022-09-02T19:00:16.733Z,30.229
2022-09-02T19:05:16.370Z,30.227
2022-09-02T19:10:19.524Z,30.227
2022-09-02T19:15:19.501Z,30.227
2022-09-02T19:20:19.520Z,30.228
2022-09-02T19:25:19.506Z,30.228
2022-09-02T19:30:19.656Z,30.231
2022-09-02T19:35:19.509Z,30.230
2022-09-02T19:40:19.531Z,30.227
2022-09-02T19:45:16.936Z,30.227
2022-09-02T19:50:16.567Z,30.225
2022-09-02T19:55:16.592Z,30.225
2022-09-02T20:00:19.516Z,30.223
2022-09-02T20:05:19.683Z,30.224
2022-09-02T20:10:20.478Z,30.225
2022-09-02T20:15:19.508Z,30.223
2022-09-02T20:20:16.388Z,30.222
2022-09-02T20:25:16.602Z,30.222
2022-09-02T20:30:19.595Z,30.222
2022-09-02T20:35:19.532Z,30.221
2022-09-02T20:40:16.684Z,30.221
2022-09-02T20:45:16.576Z,30.222
2022-09-02T20:50:16.592Z,30.225
2022-09-02T20:55:19.543Z,30.224
2022-09-02T21:00:19.663Z,30.225
2022-09-02T21:05:22.774Z,30.226
2022-09-02T21:10:19.778Z,30.226
2022-09-02T21:15:19.565Z,30.226
2022-09-02T21:20:19.546Z,30.226
2022-09-02T21:25:19.566Z,30.226
2022-09-02T21:30:19.589Z,30.227
2022-09-02T21:35:19.552Z,30.228
2022-09-02T21:40:19.561Z,30.229
2022-09-02T21:45:19.834Z,30.229
2022-09-02T21:50:22.204Z,30.231
2022-09-02T21:55:19.548Z,30.231
2022-09-02T22:00:19.572Z,30.232
2022-09-02T22:05:19.591Z,30.233
2022-09-02T22:10:16.627Z,30.234
2022-09-02T22:15:16.606Z,30.233
2022-09-02T22:20:19.862Z,30.235
2022-09-02T22:25:19.569Z,30.235
2022-09-02T22:30:19.584Z,30.237
2022-09-02T22:35:19.592Z,30.238
2022-09-02T22:40:19.589Z,30.237
2022-09-02T22:45:19.574Z,30.235
2022-09-02T22:50:16.643Z,30.237
2022-09-02T22:55:16.787Z,30.239
2022-09-02T23:00:19.687Z,30.238
2022-09-02T23:05:16.627Z,30.235
2022-09-02T23:10:16.628Z,30.237
2022-09-02T23:15:19.717Z,30.235
2022-09-02T23:20:19.609Z,30.236
2022-09-02T23:25:19.808Z,30.239
2022-09-02T23:30:19.627Z,30.239
2022-09-02T23:35:19.643Z,30.239
2022-09-02T23:40:16.678Z,30.242
2022-09-02T23:45:16.631Z,30.242
2022-09-02T23:50:16.637Z,30.244
2022-09-02T23:55:16.634Z,30.246
